sensor_id;sensor_type;location;lat;lon;timestamp;P1;durP1;ratioP1;P2;durP2;ratioP2
67162;SDS011;54092;53.088;8.850;2022-12-07T00:02:17;21.33;;;9.00;;
67162;SDS011;54092;53.088;8.850;2022-12-07T00:04:43;21.25;;;9.27;;
67162;SDS011;54092;53.088;8.850;2022-12-07T00:07:08;23.13;;;8.65;;
67162;SDS011;54092;53.088;8.850;2022-12-07T00:09:34;22.30;;;8.30;;
67162;SDS011;54092;53.088;8.850;2022-12-07T00:11:59;19.38;;;8.63;;
67162;SDS011;54092;53.088;8.850;2022-12-07T00:14:25;18.90;;;8.85;;
67162;SDS011;54092;53.088;8.850;2022-12-07T00:16:51;18.67;;;8.02;;
67162;SDS011;54092;53.088;8.850;2022-12-07T00:19:17;18.58;;;8.18;;
67162;SDS011;54092;53.088;8.850;2022-12-07T00:21:42;19.02;;;7.32;;
67162;SDS011;54092;53.088;8.850;2022-12-07T00:24:09;16.30;;;7.20;;
67162;SDS011;54092;53.088;8.850;2022-12-07T00:26:36;22.45;;;7.45;;
67162;SDS011;54092;53.088;8.850;2022-12-07T00:29:05;15.98;;;6.55;;
67162;SDS011;54092;53.088;8.850;2022-12-07T00:31:33;17.93;;;6.60;;
67162;SDS011;54092;53.088;8.850;2022-12-07T00:34:03;25.35;;;7.18;;
67162;SDS011;54092;53.088;8.850;2022-12-07T00:36:36;14.65;;;6.78;;
67162;SDS011;54092;53.088;8.850;2022-12-07T00:39:01;16.90;;;6.82;;
67162;SDS011;54092;53.088;8.850;2022-12-07T00:41:28;17.58;;;6.65;;
67162;SDS011;54092;53.088;8.850;2022-12-07T00:43:54;18.27;;;7.25;;
67162;SDS011;54092;53.088;8.850;2022-12-07T00:46:20;16.15;;;7.30;;
67162;SDS011;54092;53.088;8.850;2022-12-07T00:48:46;18.35;;;7.57;;
67162;SDS011;54092;53.088;8.850;2022-12-07T00:51:13;16.17;;;6.97;;
67162;SDS011;54092;53.088;8.850;2022-12-07T00:53:40;14.93;;;6.45;;
67162;SDS011;54092;53.088;8.850;2022-12-07T00:56:10;24.38;;;6.90;;
67162;SDS011;54092;53.088;8.850;2022-12-07T00:58:38;20.27;;;6.35;;
67162;SDS011;54092;53.088;8.850;2022-12-07T01:01:04;18.88;;;6.65;;
67162;SDS011;54092;53.088;8.850;2022-12-07T01:03:31;17.90;;;6.03;;
67162;SDS011;54092;53.088;8.850;2022-12-07T01:05:57;21.27;;;7.43;;
67162;SDS011;54092;53.088;8.850;2022-12-07T01:08:23;15.70;;;6.07;;
67162;SDS011;54092;53.088;8.850;2022-12-07T01:11:24;16.85;;;5.63;;
67162;SDS011;54092;53.088;8.850;2022-12-07T01:13:44;20.08;;;5.75;;
67162;SDS011;54092;53.088;8.850;2022-12-07T01:16:11;18.98;;;6.70;;
67162;SDS011;54092;53.088;8.850;2022-12-07T01:18:38;15.05;;;5.18;;
67162;SDS011;54092;53.088;8.850;2022-12-07T01:21:05;18.52;;;6.32;;
67162;SDS011;54092;53.088;8.850;2022-12-07T01:23:34;18.40;;;6.65;;
67162;SDS011;54092;53.088;8.850;2022-12-07T01:26:04;15.98;;;4.80;;
67162;SDS011;54092;53.088;8.850;2022-12-07T01:28:31;15.95;;;5.93;;
67162;SDS011;54092;53.088;8.850;2022-12-07T01:31:04;13.93;;;5.00;;
67162;SDS011;54092;53.088;8.850;2022-12-07T01:33:40;14.57;;;5.75;;
67162;SDS011;54092;53.088;8.850;2022-12-07T01:36:13;13.95;;;4.80;;
67162;SDS011;54092;53.088;8.850;2022-12-07T01:38:41;18.70;;;5.28;;
67162;SDS011;54092;53.088;8.850;2022-12-07T01:41:07;11.60;;;4.47;;
67162;SDS011;54092;53.088;8.850;2022-12-07T01:43:33;13.45;;;4.95;;
67162;SDS011;54092;53.088;8.850;2022-12-07T01:46:00;13.80;;;5.13;;
67162;SDS011;54092;53.088;8.850;2022-12-07T01:48:39;15.70;;;5.32;;
67162;SDS011;54092;53.088;8.850;2022-12-07T01:51:09;11.13;;;4.65;;
67162;SDS011;54092;53.088;8.850;2022-12-07T01:53:38;14.70;;;4.57;;
67162;SDS011;54092;53.088;8.850;2022-12-07T01:56:08;10.43;;;3.75;;
67162;SDS011;54092;53.088;8.850;2022-12-07T01:58:36;11.93;;;4.30;;
67162;SDS011;54092;53.088;8.850;2022-12-07T02:01:02;8.13;;;2.95;;
67162;SDS011;54092;53.088;8.850;2022-12-07T02:04:01;12.20;;;3.55;;
67162;SDS011;54092;53.088;8.850;2022-12-07T02:06:20;8.82;;;3.28;;
67162;SDS011;54092;53.088;8.850;2022-12-07T02:08:48;12.55;;;4.47;;
67162;SDS011;54092;53.088;8.850;2022-12-07T02:11:14;11.15;;;3.72;;
67162;SDS011;54092;53.088;8.850;2022-12-07T02:13:41;8.80;;;3.53;;
67162;SDS011;54092;53.088;8.850;2022-12-07T02:16:33;10.35;;;3.45;;
67162;SDS011;54092;53.088;8.850;2022-12-07T02:22:25;8.57;;;3.90;;
67162;SDS011;54092;53.088;8.850;2022-12-07T02:25:07;8.40;;;3.65;;
67162;SDS011;54092;53.088;8.850;2022-12-07T02:27:53;12.77;;;4.00;;
67162;SDS011;54092;53.088;8.850;2022-12-07T02:30:30;12.40;;;4.10;;
67162;SDS011;54092;53.088;8.850;2022-12-07T02:33:04;9.10;;;3.83;;
67162;SDS011;54092;53.088;8.850;2022-12-07T02:35:40;11.52;;;4.28;;
67162;SDS011;54092;53.088;8.850;2022-12-07T02:41:10;9.27;;;3.63;;
67162;SDS011;54092;53.088;8.850;2022-12-07T02:43:46;9.25;;;3.45;;
67162;SDS011;54092;53.088;8.850;2022-12-07T02:46:17;13.80;;;4.13;;
67162;SDS011;54092;53.088;8.850;2022-12-07T02:48:58;13.30;;;3.97;;
67162;SDS011;54092;53.088;8.850;2022-12-07T02:51:24;13.98;;;3.90;;
67162;SDS011;54092;53.088;8.850;2022-12-07T02:53:50;12.95;;;4.30;;
67162;SDS011;54092;53.088;8.850;2022-12-07T03:15:31;14.40;;;3.67;;
67162;SDS011;54092;53.088;8.850;2022-12-07T03:18:07;7.30;;;3.22;;
67162;SDS011;54092;53.088;8.850;2022-12-07T03:20:35;5.85;;;2.58;;
67162;SDS011;54092;53.088;8.850;2022-12-07T03:23:04;7.80;;;3.10;;
67162;SDS011;54092;53.088;8.850;2022-12-07T03:25:34;7.40;;;2.90;;
67162;SDS011;54092;53.088;8.850;2022-12-07T03:28:05;8.45;;;2.83;;
67162;SDS011;54092;53.088;8.850;2022-12-07T03:30:33;6.47;;;2.53;;
67162;SDS011;54092;53.088;8.850;2022-12-07T03:33:07;6.97;;;2.65;;
67162;SDS011;54092;53.088;8.850;2022-12-07T03:36:04;7.45;;;2.50;;
67162;SDS011;54092;53.088;8.850;2022-12-07T03:38:40;5.45;;;1.90;;
67162;SDS011;54092;53.088;8.850;2022-12-07T03:41:12;6.45;;;2.33;;
67162;SDS011;54092;53.088;8.850;2022-12-07T03:43:43;6.97;;;2.20;;
67162;SDS011;54092;53.088;8.850;2022-12-07T03:46:17;8.18;;;1.80;;
67162;SDS011;54092;53.088;8.850;2022-12-07T03:48:46;7.35;;;1.95;;
67162;SDS011;54092;53.088;8.850;2022-12-07T03:54:33;6.60;;;2.35;;
67162;SDS011;54092;53.088;8.850;2022-12-07T03:57:08;8.07;;;1.73;;
67162;SDS011;54092;53.088;8.850;2022-12-07T03:59:36;4.57;;;1.48;;
67162;SDS011;54092;53.088;8.850;2022-12-07T04:02:04;4.65;;;2.10;;
67162;SDS011;54092;53.088;8.850;2022-12-07T04:04:31;8.68;;;2.70;;
67162;SDS011;54092;53.088;8.850;2022-12-07T04:06:58;7.90;;;2.67;;
67162;SDS011;54092;53.088;8.850;2022-12-07T04:09:23;8.48;;;3.45;;
67162;SDS011;54092;53.088;8.850;2022-12-07T04:11:49;8.85;;;2.75;;
67162;SDS011;54092;53.088;8.850;2022-12-07T04:14:14;8.15;;;3.40;;
67162;SDS011;54092;53.088;8.850;2022-12-07T04:16:43;7.97;;;2.80;;
67162;SDS011;54092;53.088;8.850;2022-12-07T04:19:09;12.48;;;3.45;;
67162;SDS011;54092;53.088;8.850;2022-12-07T04:21:34;7.40;;;3.22;;
67162;SDS011;54092;53.088;8.850;2022-12-07T04:24:00;9.02;;;3.65;;
67162;SDS011;54092;53.088;8.850;2022-12-07T04:26:25;11.95;;;4.15;;
67162;SDS011;54092;53.088;8.850;2022-12-07T04:28:51;10.80;;;4.03;;
67162;SDS011;54092;53.088;8.850;2022-12-07T04:31:17;8.93;;;3.70;;
67162;SDS011;54092;53.088;8.850;2022-12-07T04:33:42;16.88;;;4.95;;
67162;SDS011;54092;53.088;8.850;2022-12-07T04:36:08;9.98;;;4.43;;
67162;SDS011;54092;53.088;8.850;2022-12-07T04:38:33;13.70;;;3.97;;
67162;SDS011;54092;53.088;8.850;2022-12-07T04:41:03;17.73;;;4.80;;
67162;SDS011;54092;53.088;8.850;2022-12-07T04:43:33;12.65;;;4.45;;
67162;SDS011;54092;53.088;8.850;2022-12-07T04:45:59;15.45;;;4.10;;
67162;SDS011;54092;53.088;8.850;2022-12-07T04:48:24;10.23;;;4.32;;
67162;SDS011;54092;53.088;8.850;2022-12-07T04:50:50;12.82;;;4.82;;
67162;SDS011;54092;53.088;8.850;2022-12-07T04:53:16;12.32;;;4.38;;
67162;SDS011;54092;53.088;8.850;2022-12-07T04:55:42;12.73;;;4.68;;
67162;SDS011;54092;53.088;8.850;2022-12-07T04:58:07;15.45;;;5.45;;
67162;SDS011;54092;53.088;8.850;2022-12-07T05:00:33;12.52;;;5.25;;
67162;SDS011;54092;53.088;8.850;2022-12-07T05:03:02;10.57;;;4.57;;
67162;SDS011;54092;53.088;8.850;2022-12-07T05:05:27;9.30;;;3.88;;
67162;SDS011;54092;53.088;8.850;2022-12-07T05:07:53;11.30;;;4.35;;
67162;SDS011;54092;53.088;8.850;2022-12-07T05:10:18;10.30;;;4.15;;
67162;SDS011;54092;53.088;8.850;2022-12-07T05:12:44;10.48;;;4.30;;
67162;SDS011;54092;53.088;8.850;2022-12-07T05:15:10;11.90;;;5.03;;
67162;SDS011;54092;53.088;8.850;2022-12-07T05:17:36;14.85;;;4.18;;
67162;SDS011;54092;53.088;8.850;2022-12-07T05:20:02;9.35;;;3.75;;
67162;SDS011;54092;53.088;8.850;2022-12-07T05:22:29;10.88;;;3.72;;
67162;SDS011;54092;53.088;8.850;2022-12-07T05:24:55;10.68;;;3.88;;
67162;SDS011;54092;53.088;8.850;2022-12-07T05:27:20;8.70;;;3.60;;
67162;SDS011;54092;53.088;8.850;2022-12-07T05:29:46;12.60;;;4.13;;
67162;SDS011;54092;53.088;8.850;2022-12-07T05:32:12;11.13;;;3.60;;
67162;SDS011;54092;53.088;8.850;2022-12-07T05:34:37;15.20;;;4.20;;
67162;SDS011;54092;53.088;8.850;2022-12-07T05:37:03;8.93;;;3.35;;
67162;SDS011;54092;53.088;8.850;2022-12-07T05:39:29;7.13;;;3.33;;
67162;SDS011;54092;53.088;8.850;2022-12-07T05:41:54;6.60;;;3.15;;
67162;SDS011;54092;53.088;8.850;2022-12-07T05:44:41;9.40;;;2.75;;
67162;SDS011;54092;53.088;8.850;2022-12-07T05:47:08;13.15;;;3.40;;
67162;SDS011;54092;53.088;8.850;2022-12-07T05:49:34;8.52;;;3.03;;
67162;SDS011;54092;53.088;8.850;2022-12-07T05:52:00;6.43;;;2.70;;
67162;SDS011;54092;53.088;8.850;2022-12-07T05:54:26;6.57;;;2.58;;
67162;SDS011;54092;53.088;8.850;2022-12-07T05:56:52;9.98;;;2.30;;
67162;SDS011;54092;53.088;8.850;2022-12-07T05:59:17;4.97;;;2.05;;
67162;SDS011;54092;53.088;8.850;2022-12-07T06:04:25;10.90;;;2.85;;
67162;SDS011;54092;53.088;8.850;2022-12-07T06:06:53;9.87;;;2.43;;
67162;SDS011;54092;53.088;8.850;2022-12-07T06:09:19;5.57;;;2.15;;
67162;SDS011;54092;53.088;8.850;2022-12-07T06:11:46;7.03;;;2.40;;
67162;SDS011;54092;53.088;8.850;2022-12-07T06:14:30;4.63;;;1.88;;
67162;SDS011;54092;53.088;8.850;2022-12-07T06:16:56;6.63;;;2.10;;
67162;SDS011;54092;53.088;8.850;2022-12-07T06:19:21;9.05;;;2.28;;
67162;SDS011;54092;53.088;8.850;2022-12-07T06:21:47;5.93;;;2.10;;
67162;SDS011;54092;53.088;8.850;2022-12-07T06:24:13;6.20;;;2.25;;
67162;SDS011;54092;53.088;8.850;2022-12-07T06:26:40;6.72;;;1.98;;
67162;SDS011;54092;53.088;8.850;2022-12-07T06:29:07;6.22;;;2.15;;
67162;SDS011;54092;53.088;8.850;2022-12-07T06:31:33;9.13;;;2.55;;
67162;SDS011;54092;53.088;8.850;2022-12-07T06:34:00;5.40;;;1.92;;
67162;SDS011;54092;53.088;8.850;2022-12-07T06:36:27;4.22;;;2.20;;
67162;SDS011;54092;53.088;8.850;2022-12-07T06:38:53;6.32;;;2.20;;
67162;SDS011;54092;53.088;8.850;2022-12-07T06:41:18;5.45;;;2.17;;
67162;SDS011;54092;53.088;8.850;2022-12-07T06:43:44;11.30;;;5.30;;
67162;SDS011;54092;53.088;8.850;2022-12-07T06:46:09;7.38;;;2.70;;
67162;SDS011;54092;53.088;8.850;2022-12-07T06:48:35;5.07;;;2.22;;
67162;SDS011;54092;53.088;8.850;2022-12-07T06:51:01;6.88;;;2.65;;
67162;SDS011;54092;53.088;8.850;2022-12-07T06:53:26;4.40;;;2.00;;
67162;SDS011;54092;53.088;8.850;2022-12-07T06:55:52;7.07;;;2.70;;
67162;SDS011;54092;53.088;8.850;2022-12-07T06:58:17;10.98;;;3.08;;
67162;SDS011;54092;53.088;8.850;2022-12-07T07:00:44;5.43;;;2.22;;
67162;SDS011;54092;53.088;8.850;2022-12-07T07:03:09;7.30;;;1.85;;
67162;SDS011;54092;53.088;8.850;2022-12-07T07:05:35;10.80;;;4.78;;
67162;SDS011;54092;53.088;8.850;2022-12-07T07:08:01;12.50;;;3.83;;
67162;SDS011;54092;53.088;8.850;2022-12-07T07:10:27;6.82;;;2.28;;
67162;SDS011;54092;53.088;8.850;2022-12-07T07:12:53;6.03;;;2.30;;
67162;SDS011;54092;53.088;8.850;2022-12-07T07:15:18;6.57;;;2.00;;
67162;SDS011;54092;53.088;8.850;2022-12-07T07:17:44;7.45;;;2.50;;
67162;SDS011;54092;53.088;8.850;2022-12-07T07:20:10;8.13;;;2.90;;
67162;SDS011;54092;53.088;8.850;2022-12-07T07:22:36;8.68;;;2.88;;
67162;SDS011;54092;53.088;8.850;2022-12-07T07:25:02;7.00;;;2.30;;
67162;SDS011;54092;53.088;8.850;2022-12-07T07:27:28;4.28;;;2.38;;
67162;SDS011;54092;53.088;8.850;2022-12-07T07:29:53;6.40;;;2.90;;
67162;SDS011;54092;53.088;8.850;2022-12-07T07:32:19;8.98;;;2.30;;
67162;SDS011;54092;53.088;8.850;2022-12-07T07:34:46;10.05;;;3.20;;
67162;SDS011;54092;53.088;8.850;2022-12-07T07:37:12;7.55;;;2.38;;
67162;SDS011;54092;53.088;8.850;2022-12-07T07:39:37;7.55;;;2.45;;
67162;SDS011;54092;53.088;8.850;2022-12-07T07:42:03;8.43;;;2.30;;
67162;SDS011;54092;53.088;8.850;2022-12-07T07:44:29;6.43;;;2.80;;
67162;SDS011;54092;53.088;8.850;2022-12-07T07:46:55;4.00;;;2.10;;
67162;SDS011;54092;53.088;8.850;2022-12-07T07:49:20;4.97;;;1.92;;
67162;SDS011;54092;53.088;8.850;2022-12-07T07:51:46;5.20;;;2.00;;
67162;SDS011;54092;53.088;8.850;2022-12-07T07:54:11;12.45;;;2.28;;
67162;SDS011;54092;53.088;8.850;2022-12-07T07:56:37;3.17;;;1.80;;
67162;SDS011;54092;53.088;8.850;2022-12-07T07:59:02;5.38;;;2.80;;
67162;SDS011;54092;53.088;8.850;2022-12-07T08:01:28;7.30;;;2.33;;
67162;SDS011;54092;53.088;8.850;2022-12-07T08:03:53;4.10;;;1.77;;
67162;SDS011;54092;53.088;8.850;2022-12-07T08:06:19;5.10;;;1.75;;
67162;SDS011;54092;53.088;8.850;2022-12-07T08:08:44;4.82;;;2.03;;
67162;SDS011;54092;53.088;8.850;2022-12-07T08:11:10;7.90;;;4.28;;
67162;SDS011;54092;53.088;8.850;2022-12-07T08:13:36;3.78;;;1.98;;
67162;SDS011;54092;53.088;8.850;2022-12-07T08:16:06;7.80;;;2.25;;
67162;SDS011;54092;53.088;8.850;2022-12-07T08:18:37;6.32;;;1.75;;
67162;SDS011;54092;53.088;8.850;2022-12-07T08:21:04;6.40;;;2.10;;
67162;SDS011;54092;53.088;8.850;2022-12-07T08:23:30;9.00;;;2.28;;
67162;SDS011;54092;53.088;8.850;2022-12-07T08:26:00;10.10;;;2.00;;
67162;SDS011;54092;53.088;8.850;2022-12-07T08:28:30;4.60;;;2.28;;
67162;SDS011;54092;53.088;8.850;2022-12-07T08:30:59;6.60;;;3.20;;
67162;SDS011;54092;53.088;8.850;2022-12-07T08:33:29;4.70;;;1.77;;
67162;SDS011;54092;53.088;8.850;2022-12-07T08:35:54;4.40;;;1.70;;
67162;SDS011;54092;53.088;8.850;2022-12-07T08:40:56;4.28;;;2.13;;
67162;SDS011;54092;53.088;8.850;2022-12-07T08:43:22;12.85;;;2.13;;
67162;SDS011;54092;53.088;8.850;2022-12-07T08:45:49;3.55;;;1.70;;
67162;SDS011;54092;53.088;8.850;2022-12-07T08:48:23;4.60;;;1.60;;
67162;SDS011;54092;53.088;8.850;2022-12-07T08:50:50;3.65;;;1.75;;
67162;SDS011;54092;53.088;8.850;2022-12-07T08:53:16;6.88;;;1.38;;
67162;SDS011;54092;53.088;8.850;2022-12-07T08:55:43;6.40;;;2.20;;
67162;SDS011;54092;53.088;8.850;2022-12-07T08:58:11;3.28;;;1.35;;
67162;SDS011;54092;53.088;8.850;2022-12-07T09:00:37;4.70;;;1.35;;
67162;SDS011;54092;53.088;8.850;2022-12-07T09:03:03;5.18;;;1.80;;
67162;SDS011;54092;53.088;8.850;2022-12-07T09:05:28;6.00;;;1.30;;
67162;SDS011;54092;53.088;8.850;2022-12-07T09:07:55;2.72;;;1.20;;
67162;SDS011;54092;53.088;8.850;2022-12-07T09:10:24;1.40;;;1.02;;
67162;SDS011;54092;53.088;8.850;2022-12-07T09:12:50;9.20;;;1.50;;
67162;SDS011;54092;53.088;8.850;2022-12-07T09:15:16;2.58;;;1.25;;
67162;SDS011;54092;53.088;8.850;2022-12-07T09:17:42;5.13;;;1.10;;
67162;SDS011;54092;53.088;8.850;2022-12-07T09:20:07;3.40;;;1.55;;
67162;SDS011;54092;53.088;8.850;2022-12-07T09:22:33;3.10;;;1.63;;
67162;SDS011;54092;53.088;8.850;2022-12-07T09:24:59;7.90;;;2.03;;
67162;SDS011;54092;53.088;8.850;2022-12-07T09:27:26;2.50;;;1.35;;
67162;SDS011;54092;53.088;8.850;2022-12-07T09:29:52;4.68;;;1.42;;
67162;SDS011;54092;53.088;8.850;2022-12-07T09:32:17;5.45;;;2.00;;
67162;SDS011;54092;53.088;8.850;2022-12-07T09:34:43;4.45;;;1.67;;
67162;SDS011;54092;53.088;8.850;2022-12-07T09:37:09;5.18;;;1.90;;
67162;SDS011;54092;53.088;8.850;2022-12-07T09:39:38;5.78;;;1.92;;
67162;SDS011;54092;53.088;8.850;2022-12-07T09:42:05;5.47;;;2.20;;
67162;SDS011;54092;53.088;8.850;2022-12-07T09:44:32;3.10;;;1.73;;
67162;SDS011;54092;53.088;8.850;2022-12-07T09:46:58;3.70;;;2.05;;
67162;SDS011;54092;53.088;8.850;2022-12-07T09:49:25;7.30;;;2.10;;
67162;SDS011;54092;53.088;8.850;2022-12-07T09:51:59;5.32;;;2.40;;
67162;SDS011;54092;53.088;8.850;2022-12-07T09:54:27;8.40;;;2.65;;
67162;SDS011;54092;53.088;8.850;2022-12-07T09:56:54;7.45;;;2.00;;
67162;SDS011;54092;53.088;8.850;2022-12-07T09:59:20;10.30;;;2.50;;
67162;SDS011;54092;53.088;8.850;2022-12-07T10:01:48;3.85;;;2.03;;
67162;SDS011;54092;53.088;8.850;2022-12-07T10:04:16;9.25;;;2.55;;
67162;SDS011;54092;53.088;8.850;2022-12-07T10:06:47;5.57;;;2.55;;
67162;SDS011;54092;53.088;8.850;2022-12-07T10:09:14;5.40;;;2.45;;
67162;SDS011;54092;53.088;8.850;2022-12-07T10:14:40;4.85;;;2.03;;
67162;SDS011;54092;53.088;8.850;2022-12-07T10:17:30;5.60;;;1.80;;
67162;SDS011;54092;53.088;8.850;2022-12-07T10:20:08;5.60;;;2.05;;
67162;SDS011;54092;53.088;8.850;2022-12-07T10:22:57;5.35;;;2.03;;
67162;SDS011;54092;53.088;8.850;2022-12-07T10:25:26;6.15;;;1.92;;
67162;SDS011;54092;53.088;8.850;2022-12-07T10:28:02;7.70;;;2.20;;
67162;SDS011;54092;53.088;8.850;2022-12-07T10:30:31;6.35;;;1.95;;
67162;SDS011;54092;53.088;8.850;2022-12-07T10:32:58;5.25;;;2.00;;
67162;SDS011;54092;53.088;8.850;2022-12-07T10:35:28;6.18;;;1.90;;
67162;SDS011;54092;53.088;8.850;2022-12-07T10:37:56;7.10;;;2.00;;
67162;SDS011;54092;53.088;8.850;2022-12-07T10:40:32;7.90;;;2.10;;
67162;SDS011;54092;53.088;8.850;2022-12-07T10:43:15;9.30;;;2.72;;
67162;SDS011;54092;53.088;8.850;2022-12-07T10:48:36;3.08;;;1.80;;
67162;SDS011;54092;53.088;8.850;2022-12-07T10:53:57;12.90;;;2.40;;
67162;SDS011;54092;53.088;8.850;2022-12-07T11:10:17;4.40;;;1.90;;
67162;SDS011;54092;53.088;8.850;2022-12-07T11:12:47;5.88;;;2.13;;
67162;SDS011;54092;53.088;8.850;2022-12-07T11:15:55;5.60;;;2.03;;
67162;SDS011;54092;53.088;8.850;2022-12-07T11:18:48;4.32;;;1.83;;
67162;SDS011;54092;53.088;8.850;2022-12-07T11:21:48;6.68;;;1.77;;
67162;SDS011;54092;53.088;8.850;2022-12-07T11:24:40;6.60;;;1.65;;
67162;SDS011;54092;53.088;8.850;2022-12-07T11:27:24;6.10;;;2.08;;
67162;SDS011;54092;53.088;8.850;2022-12-07T11:38:07;5.13;;;1.80;;
67162;SDS011;54092;53.088;8.850;2022-12-07T11:40:39;5.30;;;2.80;;
67162;SDS011;54092;53.088;8.850;2022-12-07T11:43:20;5.93;;;1.70;;
67162;SDS011;54092;53.088;8.850;2022-12-07T11:45:54;4.95;;;1.95;;
67162;SDS011;54092;53.088;8.850;2022-12-07T11:48:32;9.00;;;1.90;;
67162;SDS011;54092;53.088;8.850;2022-12-07T11:51:09;4.57;;;2.10;;
67162;SDS011;54092;53.088;8.850;2022-12-07T11:54:11;11.38;;;2.80;;
67162;SDS011;54092;53.088;8.850;2022-12-07T11:56:41;4.95;;;1.80;;
67162;SDS011;54092;53.088;8.850;2022-12-07T12:01:57;7.82;;;1.88;;
67162;SDS011;54092;53.088;8.850;2022-12-07T12:04:52;7.00;;;1.80;;
67162;SDS011;54092;53.088;8.850;2022-12-07T12:07:40;6.63;;;2.10;;
67162;SDS011;54092;53.088;8.850;2022-12-07T12:10:30;11.48;;;2.58;;
67162;SDS011;54092;53.088;8.850;2022-12-07T12:16:06;5.82;;;1.85;;
67162;SDS011;54092;53.088;8.850;2022-12-07T12:21:25;6.80;;;2.72;;
67162;SDS011;54092;53.088;8.850;2022-12-07T12:24:00;8.35;;;2.83;;
67162;SDS011;54092;53.088;8.850;2022-12-07T12:26:30;5.53;;;1.58;;
67162;SDS011;54092;53.088;8.850;2022-12-07T12:29:18;6.77;;;2.30;;
67162;SDS011;54092;53.088;8.850;2022-12-07T12:32:12;9.43;;;2.15;;
67162;SDS011;54092;53.088;8.850;2022-12-07T12:37:38;8.40;;;3.08;;
67162;SDS011;54092;53.088;8.850;2022-12-07T12:45:24;4.45;;;1.65;;
67162;SDS011;54092;53.088;8.850;2022-12-07T12:48:02;5.70;;;1.45;;
67162;SDS011;54092;53.088;8.850;2022-12-07T12:50:32;14.20;;;2.37;;
67162;SDS011;54092;53.088;8.850;2022-12-07T13:00:43;2.95;;;1.50;;
67162;SDS011;54092;53.088;8.850;2022-12-07T13:03:26;6.22;;;1.80;;
67162;SDS011;54092;53.088;8.850;2022-12-07T13:06:17;6.18;;;1.67;;
67162;SDS011;54092;53.088;8.850;2022-12-07T13:08:46;6.72;;;1.67;;
67162;SDS011;54092;53.088;8.850;2022-12-07T13:13:45;6.60;;;2.20;;
67162;SDS011;54092;53.088;8.850;2022-12-07T13:18:36;4.05;;;1.33;;
67162;SDS011;54092;53.088;8.850;2022-12-07T13:26:12;4.07;;;1.45;;
67162;SDS011;54092;53.088;8.850;2022-12-07T13:28:41;5.43;;;1.83;;
67162;SDS011;54092;53.088;8.850;2022-12-07T13:33:45;7.32;;;1.92;;
67162;SDS011;54092;53.088;8.850;2022-12-07T13:36:14;5.70;;;1.83;;
67162;SDS011;54092;53.088;8.850;2022-12-07T13:38:54;6.20;;;1.73;;
67162;SDS011;54092;53.088;8.850;2022-12-07T13:41:22;3.08;;;1.80;;
67162;SDS011;54092;53.088;8.850;2022-12-07T13:44:16;5.70;;;2.30;;
67162;SDS011;54092;53.088;8.850;2022-12-07T13:49:15;7.05;;;2.30;;
67162;SDS011;54092;53.088;8.850;2022-12-07T13:51:46;7.35;;;2.42;;
67162;SDS011;54092;53.088;8.850;2022-12-07T13:54:12;6.45;;;2.70;;
67162;SDS011;54092;53.088;8.850;2022-12-07T13:56:39;12.35;;;2.85;;
67162;SDS011;54092;53.088;8.850;2022-12-07T13:59:07;10.88;;;2.70;;
67162;SDS011;54092;53.088;8.850;2022-12-07T14:01:44;5.60;;;2.70;;
67162;SDS011;54092;53.088;8.850;2022-12-07T14:04:29;7.43;;;3.42;;
67162;SDS011;54092;53.088;8.850;2022-12-07T14:06:57;10.98;;;2.85;;
67162;SDS011;54092;53.088;8.850;2022-12-07T14:09:23;11.27;;;2.90;;
67162;SDS011;54092;53.088;8.850;2022-12-07T14:11:55;5.15;;;2.47;;
67162;SDS011;54092;53.088;8.850;2022-12-07T14:14:22;10.82;;;2.90;;
67162;SDS011;54092;53.088;8.850;2022-12-07T14:16:56;5.85;;;2.40;;
67162;SDS011;54092;53.088;8.850;2022-12-07T14:19:41;6.03;;;2.20;;
67162;SDS011;54092;53.088;8.850;2022-12-07T14:22:18;6.80;;;2.22;;
67162;SDS011;54092;53.088;8.850;2022-12-07T14:24:51;10.15;;;3.20;;
67162;SDS011;54092;53.088;8.850;2022-12-07T14:27:33;8.30;;;2.42;;
67162;SDS011;54092;53.088;8.850;2022-12-07T14:30:00;9.82;;;2.20;;
67162;SDS011;54092;53.088;8.850;2022-12-07T14:37:33;7.78;;;1.67;;
67162;SDS011;54092;53.088;8.850;2022-12-07T14:39:58;7.65;;;2.00;;
67162;SDS011;54092;53.088;8.850;2022-12-07T14:42:26;13.75;;;3.80;;
67162;SDS011;54092;53.088;8.850;2022-12-07T14:44:53;11.10;;;3.55;;
67162;SDS011;54092;53.088;8.850;2022-12-07T14:47:20;5.65;;;2.20;;
67162;SDS011;54092;53.088;8.850;2022-12-07T14:49:46;6.43;;;2.80;;
67162;SDS011;54092;53.088;8.850;2022-12-07T14:52:16;7.72;;;2.35;;
67162;SDS011;54092;53.088;8.850;2022-12-07T14:54:48;9.18;;;2.65;;
67162;SDS011;54092;53.088;8.850;2022-12-07T14:57:13;13.30;;;2.40;;
67162;SDS011;54092;53.088;8.850;2022-12-07T14:59:39;4.93;;;2.17;;
67162;SDS011;54092;53.088;8.850;2022-12-07T15:02:06;7.53;;;2.10;;
67162;SDS011;54092;53.088;8.850;2022-12-07T15:04:33;6.18;;;2.50;;
67162;SDS011;54092;53.088;8.850;2022-12-07T15:07:00;6.90;;;2.40;;
67162;SDS011;54092;53.088;8.850;2022-12-07T15:09:27;7.35;;;2.78;;
67162;SDS011;54092;53.088;8.850;2022-12-07T15:11:53;8.70;;;3.42;;
67162;SDS011;54092;53.088;8.850;2022-12-07T15:14:19;6.03;;;2.78;;
67162;SDS011;54092;53.088;8.850;2022-12-07T15:16:44;11.93;;;3.15;;
67162;SDS011;54092;53.088;8.850;2022-12-07T15:19:11;15.40;;;3.05;;
67162;SDS011;54092;53.088;8.850;2022-12-07T15:21:42;10.52;;;2.83;;
67162;SDS011;54092;53.088;8.850;2022-12-07T15:24:08;6.72;;;3.08;;
67162;SDS011;54092;53.088;8.850;2022-12-07T15:26:35;5.35;;;2.60;;
67162;SDS011;54092;53.088;8.850;2022-12-07T15:29:03;7.18;;;2.13;;
67162;SDS011;54092;53.088;8.850;2022-12-07T15:31:28;7.45;;;2.25;;
67162;SDS011;54092;53.088;8.850;2022-12-07T15:33:54;8.73;;;3.50;;
67162;SDS011;54092;53.088;8.850;2022-12-07T15:36:23;12.63;;;3.30;;
67162;SDS011;54092;53.088;8.850;2022-12-07T15:38:51;7.28;;;3.47;;
67162;SDS011;54092;53.088;8.850;2022-12-07T15:41:17;6.65;;;2.70;;
67162;SDS011;54092;53.088;8.850;2022-12-07T15:43:43;15.20;;;7.20;;
67162;SDS011;54092;53.088;8.850;2022-12-07T15:46:34;9.02;;;5.28;;
67162;SDS011;54092;53.088;8.850;2022-12-07T15:49:02;6.20;;;3.40;;
67162;SDS011;54092;53.088;8.850;2022-12-07T15:51:29;4.90;;;2.67;;
67162;SDS011;54092;53.088;8.850;2022-12-07T15:53:55;6.03;;;2.60;;
67162;SDS011;54092;53.088;8.850;2022-12-07T15:56:22;5.82;;;2.15;;
67162;SDS011;54092;53.088;8.850;2022-12-07T15:58:48;7.20;;;2.28;;
67162;SDS011;54092;53.088;8.850;2022-12-07T16:01:17;8.82;;;4.10;;
67162;SDS011;54092;53.088;8.850;2022-12-07T16:03:44;5.15;;;2.42;;
67162;SDS011;54092;53.088;8.850;2022-12-07T16:06:10;14.90;;;6.32;;
67162;SDS011;54092;53.088;8.850;2022-12-07T16:08:44;7.45;;;2.75;;
67162;SDS011;54092;53.088;8.850;2022-12-07T16:11:10;7.40;;;2.97;;
67162;SDS011;54092;53.088;8.850;2022-12-07T16:13:36;6.32;;;2.72;;
67162;SDS011;54092;53.088;8.850;2022-12-07T16:16:04;7.35;;;4.60;;
67162;SDS011;54092;53.088;8.850;2022-12-07T16:18:32;6.18;;;2.13;;
67162;SDS011;54092;53.088;8.850;2022-12-07T16:20:57;11.10;;;4.82;;
67162;SDS011;54092;53.088;8.850;2022-12-07T16:23:23;11.05;;;2.88;;
67162;SDS011;54092;53.088;8.850;2022-12-07T16:25:48;5.80;;;2.55;;
67162;SDS011;54092;53.088;8.850;2022-12-07T16:28:14;3.97;;;2.30;;
67162;SDS011;54092;53.088;8.850;2022-12-07T16:30:39;6.32;;;2.60;;
67162;SDS011;54092;53.088;8.850;2022-12-07T16:33:05;8.07;;;2.90;;
67162;SDS011;54092;53.088;8.850;2022-12-07T16:35:31;4.95;;;2.40;;
67162;SDS011;54092;53.088;8.850;2022-12-07T16:37:56;6.80;;;2.95;;
67162;SDS011;54092;53.088;8.850;2022-12-07T16:40:22;10.38;;;3.47;;
67162;SDS011;54092;53.088;8.850;2022-12-07T16:42:48;8.02;;;2.65;;
67162;SDS011;54092;53.088;8.850;2022-12-07T16:45:13;11.65;;;4.93;;
67162;SDS011;54092;53.088;8.850;2022-12-07T16:47:39;5.55;;;2.70;;